createdAt,value
2022-08-22T00:00:14.867Z,99.90
2022-08-22T00:01:46.164Z,99.90
2022-08-22T00:02:47.240Z,99.90
2022-08-22T00:02:57.280Z,99.90
2022-08-22T00:03:06.742Z,99.90
2022-08-22T00:04:33.323Z,99.90
2022-08-22T00:06:01.960Z,99.90
2022-08-22T00:07:07.425Z,99.90
2022-08-22T00:08:23.784Z,99.90
2022-08-22T00:09:50.541Z,99.90
2022-08-22T00:11:05.447Z,99.90
2022-08-22T00:12:26.170Z,99.90
2022-08-22T00:13:38.768Z,99.90
2022-08-22T00:14:53.418Z,99.90
2022-08-22T00:16:00.975Z,99.90
2022-08-22T00:17:17.105Z,99.90
2022-08-22T00:18:29.400Z,99.90
2022-08-22T00:19:42.963Z,99.90
2022-08-22T00:20:51.455Z,99.90
2022-08-22T00:22:21.981Z,99.90
2022-08-22T00:23:42.555Z,99.90
2022-08-22T00:25:24.842Z,99.90
2022-08-22T00:26:45.742Z,99.90
2022-08-22T00:28:03.986Z,99.90
2022-08-22T00:29:11.685Z,99.90
2022-08-22T00:30:18.284Z,99.90
2022-08-22T00:31:36.687Z,99.90
2022-08-22T00:33:03.347Z,99.90
2022-08-22T00:34:15.606Z,99.90
2022-08-22T00:35:28.416Z,99.90
2022-08-22T00:36:52.069Z,99.90
2022-08-22T00:38:03.146Z,99.90
2022-08-22T00:39:16.921Z,99.90
2022-08-22T00:40:27.865Z,99.90
2022-08-22T00:41:43.174Z,99.90
2022-08-22T00:43:17.018Z,99.90
2022-08-22T00:44:53.677Z,99.90
2022-08-22T00:46:19.153Z,99.90
2022-08-22T00:47:26.775Z,99.90
2022-08-22T00:48:47.405Z,99.90
2022-08-22T00:50:18.216Z,99.90
2022-08-22T00:51:38.014Z,99.90
2022-08-22T00:52:48.669Z,99.90
2022-08-22T00:54:06.798Z,99.90
2022-08-22T00:55:43.239Z,99.90
2022-08-22T00:57:12.007Z,99.90
2022-08-22T00:58:51.008Z,99.90
2022-08-22T01:00:04.049Z,99.90
2022-08-22T01:01:12.964Z,99.90
2022-08-22T01:02:40.953Z,99.90
2022-08-22T01:04:07.953Z,99.90
2022-08-22T01:05:38.977Z,99.90
2022-08-22T01:07:07.982Z,99.90
2022-08-22T01:08:42.537Z,99.90
2022-08-22T01:10:00.148Z,99.90
2022-08-22T01:11:18.502Z,99.90
2022-08-22T01:12:28.841Z,99.90
2022-08-22T01:14:01.838Z,99.90
2022-08-22T01:15:13.921Z,99.90
2022-08-22T01:16:27.600Z,99.90
2022-08-22T01:17:47.158Z,99.90
2022-08-22T01:19:14.762Z,99.90
2022-08-22T01:20:29.931Z,99.90
2022-08-22T01:22:00.665Z,99.90
2022-08-22T01:23:52.111Z,99.90
2022-08-22T01:25:26.796Z,99.90
2022-08-22T01:26:36.919Z,99.90
2022-08-22T01:28:13.951Z,99.90
2022-08-22T01:29:29.777Z,99.90
2022-08-22T01:31:03.600Z,99.90
2022-08-22T01:32:32.542Z,99.90
2022-08-22T01:34:12.880Z,99.90
2022-08-22T01:35:36.918Z,99.90
2022-08-22T01:37:07.702Z,99.90
2022-08-22T01:38:40.717Z,99.90
2022-08-22T01:40:13.549Z,99.90
2022-08-22T01:41:39.158Z,99.90
2022-08-22T01:43:01.975Z,99.90
2022-08-22T01:44:45.042Z,99.90
2022-08-22T01:46:02.165Z,99.90
2022-08-22T01:47:23.322Z,99.90
2022-08-22T01:48:30.552Z,99.90
2022-08-22T01:49:44.782Z,99.90
2022-08-22T01:50:46.434Z,99.90
2022-08-22T01:52:19.734Z,99.90
2022-08-22T01:53:24.561Z,99.90
2022-08-22T01:54:46.471Z,99.90
2022-08-22T01:56:03.830Z,99.90
2022-08-22T01:57:08.058Z,99.90
2022-08-22T01:58:17.842Z,99.90
2022-08-22T01:59:33.692Z,99.90
2022-08-22T02:01:08.585Z,99.90
2022-08-22T02:02:28.360Z,99.90
2022-08-22T02:04:02.402Z,99.90
2022-08-22T02:05:11.769Z,99.90
2022-08-22T02:06:22.977Z,99.90
2022-08-22T02:07:48.450Z,99.90
2022-08-22T02:09:01.486Z,99.90
2022-08-22T02:10:38.110Z,99.90
2022-08-22T02:11:49.942Z,99.90
2022-08-22T02:13:23.175Z,99.90
2022-08-22T02:14:49.243Z,99.90
2022-08-22T02:16:01.197Z,99.90
2022-08-22T02:17:08.972Z,99.90
2022-08-22T02:18:17.381Z,99.90
2022-08-22T02:19:34.013Z,99.90
2022-08-22T02:20:58.845Z,99.90
2022-08-22T02:22:07.122Z,99.90
2022-08-22T02:23:43.573Z,99.90
2022-08-22T02:24:59.037Z,99.90
2022-08-22T02:26:03.914Z,99.90
2022-08-22T02:27:35.989Z,99.90
2022-08-22T02:28:58.670Z,99.90
2022-08-22T02:30:12.523Z,99.90
2022-08-22T02:31:22.869Z,99.90
2022-08-22T02:32:35.540Z,99.90
2022-08-22T02:33:46.298Z,99.90
2022-08-22T02:35:29.557Z,99.90
2022-08-22T02:36:46.920Z,99.90
2022-08-22T02:38:07.525Z,99.90
2022-08-22T02:39:27.399Z,99.90
2022-08-22T02:41:04.035Z,99.90
2022-08-22T02:42:21.338Z,99.90
2022-08-22T02:43:37.353Z,99.90
2022-08-22T02:44:48.264Z,99.90
2022-08-22T02:45:55.965Z,99.90
2022-08-22T02:47:15.339Z,99.90
2022-08-22T02:48:32.510Z,99.90
2022-08-22T02:49:47.500Z,99.90
2022-08-22T02:51:03.673Z,99.90
2022-08-22T02:52:16.624Z,99.90
2022-08-22T02:53:30.836Z,99.90
2022-08-22T02:54:56.220Z,99.90
2022-08-22T02:56:11.498Z,99.90
2022-08-22T02:57:42.146Z,99.90
2022-08-22T02:58:59.184Z,99.90
2022-08-22T03:00:31.040Z,99.90
2022-08-22T03:01:40.986Z,99.90
2022-08-22T03:02:45.731Z,99.90
2022-08-22T03:03:48.507Z,99.90
2022-08-22T03:04:56.905Z,99.90
2022-08-22T03:06:40.036Z,99.90
2022-08-22T03:07:50.957Z,99.90
2022-08-22T03:09:20.637Z,99.90
2022-08-22T03:10:39.395Z,99.90
2022-08-22T03:11:46.578Z,99.90
2022-08-22T03:13:07.475Z,99.90
2022-08-22T03:14:15.816Z,99.90
2022-08-22T03:15:38.103Z,99.90
2022-08-22T03:16:52.748Z,99.90
2022-08-22T03:18:04.121Z,99.90
2022-08-22T03:19:42.497Z,99.90
2022-08-22T03:21:05.711Z,99.90
2022-08-22T03:22:15.554Z,99.90
2022-08-22T03:23:38.962Z,99.90
2022-08-22T03:25:11.010Z,99.90
2022-08-22T03:26:41.298Z,99.90
2022-08-22T03:28:29.011Z,99.90
2022-08-22T03:29:38.488Z,99.90
2022-08-22T03:30:55.947Z,99.90
2022-08-22T03:32:12.468Z,99.90
2022-08-22T03:33:21.385Z,99.90
2022-08-22T03:34:26.602Z,99.90
2022-08-22T03:35:32.318Z,99.90
2022-08-22T03:36:35.185Z,99.90
2022-08-22T03:37:40.383Z,99.90
2022-08-22T03:38:53.841Z,99.90
2022-08-22T03:40:21.684Z,99.90
2022-08-22T03:41:42.370Z,99.90
2022-08-22T03:43:02.705Z,99.90
2022-08-22T03:44:38.490Z,99.90
2022-08-22T03:46:22.783Z,99.90
2022-08-22T03:47:24.431Z,99.90
2022-08-22T03:48:48.629Z,99.90
2022-08-22T03:50:08.274Z,99.90
2022-08-22T03:51:24.799Z,99.90
2022-08-22T03:53:10.291Z,99.90
2022-08-22T03:54:33.031Z,99.90
2022-08-22T03:56:08.023Z,99.90
2022-08-22T03:57:24.349Z,99.90
2022-08-22T03:58:41.914Z,99.90
2022-08-22T04:00:10.483Z,99.90
2022-08-22T04:01:31.614Z,99.90
2022-08-22T04:02:52.418Z,99.90
2022-08-22T04:04:02.889Z,99.90
2022-08-22T04:05:32.398Z,99.90
2022-08-22T04:07:17.016Z,99.90
2022-08-22T04:08:54.026Z,99.90
2022-08-22T04:10:43.997Z,99.90
2022-08-22T04:12:04.082Z,99.90
2022-08-22T04:13:43.845Z,99.90
2022-08-22T04:15:25.906Z,99.90
2022-08-22T04:16:49.674Z,99.90
2022-08-22T04:18:12.543Z,99.90
2022-08-22T04:19:33.279Z,99.90
2022-08-22T04:21:16.452Z,99.90
2022-08-22T04:22:42.295Z,99.90
2022-08-22T04:24:01.493Z,99.90
2022-08-22T04:25:18.258Z,99.90
2022-08-22T04:26:45.297Z,99.90
2022-08-22T04:28:01.056Z,99.90
2022-08-22T04:29:21.981Z,99.90
2022-08-22T04:30:50.675Z,99.90
2022-08-22T04:32:14.531Z,99.90
2022-08-22T04:33:45.596Z,99.90
2022-08-22T04:35:01.811Z,99.90
2022-08-22T04:36:39.711Z,99.90
2022-08-22T04:37:48.097Z,99.90
2022-08-22T04:38:56.827Z,99.90
2022-08-22T04:40:37.785Z,99.90
2022-08-22T04:42:29.199Z,99.90
2022-08-22T04:43:53.439Z,99.90
2022-08-22T04:45:03.358Z,99.90
2022-08-22T04:46:26.236Z,99.90
2022-08-22T04:48:20.273Z,99.90
2022-08-22T04:49:43.526Z,99.90
2022-08-22T04:50:54.971Z,99.90
2022-08-22T04:52:21.682Z,99.90
2022-08-22T04:53:48.111Z,99.90
2022-08-22T04:55:14.532Z,99.90
2022-08-22T04:56:44.046Z,99.90
2022-08-22T04:58:06.455Z,99.90
2022-08-22T04:59:13.396Z,99.90
2022-08-22T05:00:16.422Z,99.90
2022-08-22T05:01:23.300Z,99.90
2022-08-22T05:02:31.097Z,99.90
2022-08-22T05:03:39.917Z,99.90
2022-08-22T05:04:57.098Z,99.90
2022-08-22T05:06:02.222Z,99.90
2022-08-22T05:07:41.374Z,99.90
2022-08-22T05:13:39.408Z,99.90
2022-08-22T05:14:54.991Z,99.90
2022-08-22T05:16:03.294Z,99.90
2022-08-22T05:17:15.517Z,99.90
2022-08-22T05:18:31.897Z,99.90
2022-08-22T05:19:40.099Z,99.90
2022-08-22T05:20:47.457Z,99.90
2022-08-22T05:21:52.042Z,99.90
2022-08-22T05:23:00.866Z,99.90
2022-08-22T05:24:09.926Z,99.90
2022-08-22T05:25:26.524Z,99.90
2022-08-22T05:26:34.138Z,99.90
2022-08-22T05:27:42.405Z,99.90
2022-08-22T05:28:56.598Z,99.90
2022-08-22T05:30:13.434Z,99.90
2022-08-22T05:31:23.978Z,99.90
2022-08-22T05:32:33.592Z,99.90
2022-08-22T05:33:50.702Z,99.90
2022-08-22T05:34:57.785Z,99.90
2022-08-22T05:36:06.109Z,99.90
2022-08-22T05:37:25.656Z,99.90
2022-08-22T05:38:34.447Z,99.90
2022-08-22T05:39:40.179Z,99.90
2022-08-22T05:40:43.476Z,99.90
2022-08-22T05:41:45.864Z,99.90
2022-08-22T05:42:48.022Z,99.90
2022-08-22T05:43:51.447Z,99.90
2022-08-22T05:44:55.174Z,99.90
2022-08-22T05:45:58.715Z,99.90
2022-08-22T05:47:16.249Z,99.90
2022-08-22T05:48:27.858Z,99.90
2022-08-22T05:49:48.861Z,99.90
2022-08-22T05:51:04.572Z,99.90
2022-08-22T05:52:22.763Z,99.90
2022-08-22T05:53:44.213Z,99.90
2022-08-22T05:55:06.869Z,99.90
2022-08-22T05:56:19.154Z,99.90
2022-08-22T05:57:30.133Z,99.90
2022-08-22T05:58:55.808Z,99.90
2022-08-22T06:00:14.940Z,99.90
2022-08-22T06:01:38.156Z,99.90
2022-08-22T06:03:20.899Z,99.90
2022-08-22T06:04:51.219Z,99.90
2022-08-22T06:05:56.378Z,99.90
2022-08-22T06:07:18.463Z,99.90
2022-08-22T06:08:40.971Z,99.90
2022-08-22T06:09:48.347Z,99.90
2022-08-22T06:10:56.625Z,99.90
2022-08-22T06:12:07.406Z,99.90
2022-08-22T06:13:26.773Z,99.90
2022-08-22T06:14:31.575Z,99.90
2022-08-22T06:15:47.793Z,99.90
2022-08-22T06:17:10.183Z,99.90
2022-08-22T06:18:21.020Z,99.90
2022-08-22T06:19:23.835Z,99.90
2022-08-22T06:20:46.656Z,99.90
2022-08-22T06:21:51.786Z,99.90
2022-08-22T06:22:57.946Z,99.90
2022-08-22T06:24:01.648Z,99.90
2022-08-22T06:25:12.799Z,99.90
2022-08-22T06:26:20.579Z,99.90
2022-08-22T06:27:27.078Z,99.90
2022-08-22T06:28:55.453Z,99.90
2022-08-22T06:30:01.003Z,99.90
2022-08-22T06:31:04.577Z,99.90
2022-08-22T06:32:34.142Z,99.90
2022-08-22T06:33:54.452Z,99.90
2022-08-22T06:35:04.051Z,99.90
2022-08-22T06:36:32.270Z,99.90
2022-08-22T06:37:39.681Z,99.90
2022-08-22T06:38:56.450Z,99.90
2022-08-22T06:39:59.825Z,99.90
2022-08-22T06:41:06.774Z,99.90
2022-08-22T06:42:33.238Z,99.90
2022-08-22T06:43:42.310Z,99.90
2022-08-22T06:44:50.516Z,99.90
2022-08-22T06:45:53.269Z,99.90
2022-08-22T06:46:58.617Z,99.90
2022-08-22T06:48:00.970Z,99.90
2022-08-22T06:49:05.394Z,99.90
2022-08-22T06:50:14.162Z,99.90
2022-08-22T06:51:17.874Z,99.90
2022-08-22T06:52:23.577Z,99.90
2022-08-22T06:53:34.204Z,99.90
2022-08-22T06:54:46.391Z,99.90
2022-08-22T06:55:52.158Z,99.90
2022-08-22T06:56:55.404Z,99.90
2022-08-22T06:58:03.995Z,99.90
2022-08-22T06:59:12.522Z,99.90
2022-08-22T07:00:16.406Z,99.90
2022-08-22T07:01:25.372Z,99.90
2022-08-22T07:02:36.352Z,99.90
2022-08-22T07:03:49.814Z,99.90
2022-08-22T07:04:52.010Z,99.90
2022-08-22T07:05:55.891Z,99.90
2022-08-22T07:07:01.108Z,99.90
2022-08-22T07:08:19.295Z,99.90
2022-08-22T07:09:24.006Z,99.90
2022-08-22T07:10:26.199Z,99.90
2022-08-22T07:11:34.702Z,99.90
2022-08-22T07:12:39.176Z,99.90
2022-08-22T07:13:46.266Z,99.90
2022-08-22T07:14:50.987Z,99.90
2022-08-22T07:15:56.847Z,99.90
2022-08-22T07:17:03.550Z,99.90
2022-08-22T07:18:15.346Z,99.90
2022-08-22T07:19:36.983Z,99.90
2022-08-22T07:20:45.161Z,99.90
2022-08-22T07:21:48.615Z,99.90
2022-08-22T07:23:07.414Z,99.90
2022-08-22T07:24:11.182Z,99.90
2022-08-22T07:25:15.766Z,99.90
2022-08-22T07:26:26.990Z,99.90
2022-08-22T07:27:48.781Z,99.90
2022-08-22T07:28:59.026Z,99.90
2022-08-22T07:30:12.904Z,99.90
2022-08-22T07:31:26.592Z,99.90
2022-08-22T07:33:25.995Z,99.90
2022-08-22T07:34:37.572Z,99.90
2022-08-22T07:35:53.256Z,99.90
2022-08-22T07:36:58.899Z,99.90
2022-08-22T07:38:23.643Z,99.90
2022-08-22T07:39:28.554Z,99.90
2022-08-22T07:40:42.206Z,99.90
2022-08-22T07:42:07.145Z,99.90
2022-08-22T07:43:12.489Z,99.90
2022-08-22T07:44:19.568Z,99.90
2022-08-22T07:45:47.636Z,99.90
2022-08-22T07:46:58.632Z,99.90
2022-08-22T07:48:06.764Z,99.90
2022-08-22T07:49:52.655Z,99.90
2022-08-22T07:51:04.419Z,99.90
2022-08-22T07:52:11.158Z,99.90
2022-08-22T07:53:42.021Z,99.90
2022-08-22T07:54:50.581Z,99.90
2022-08-22T07:55:55.364Z,99.90
2022-08-22T07:57:04.254Z,99.90
2022-08-22T07:58:07.941Z,99.30
2022-08-22T07:59:17.183Z,96.70
2022-08-22T08:00:21.235Z,98.90
2022-08-22T08:01:25.381Z,98.50
2022-08-22T08:02:28.637Z,98.50
2022-08-22T08:03:31.389Z,98.90
2022-08-22T08:04:40.039Z,99.50
2022-08-22T08:05:44.683Z,96.50
2022-08-22T08:06:53.295Z,94.20
2022-08-22T08:07:56.650Z,92.70
2022-08-22T08:08:58.887Z,94.00
2022-08-22T08:10:13.073Z,93.80
2022-08-22T08:11:16.978Z,93.10
2022-08-22T08:12:26.048Z,94.30
2022-08-22T08:13:35.619Z,93.30
2022-08-22T08:14:40.605Z,92.10
2022-08-22T08:15:45.356Z,90.50
2022-08-22T08:17:03.186Z,93.80
2022-08-22T08:18:21.899Z,94.30
2022-08-22T08:19:25.361Z,92.80
2022-08-22T08:20:29.206Z,92.00
2022-08-22T08:21:37.412Z,87.70
2022-08-22T08:22:42.891Z,88.40
2022-08-22T08:23:46.755Z,88.40
2022-08-22T08:24:50.378Z,84.90
2022-08-22T08:26:11.412Z,82.90
2022-08-22T08:27:39.766Z,80.60
2022-08-22T08:28:52.100Z,78.50
2022-08-22T08:30:02.517Z,79.70
2022-08-22T08:31:25.249Z,75.50
2022-08-22T08:32:32.042Z,78.30
2022-08-22T08:33:37.707Z,74.90
2022-08-22T08:34:40.363Z,76.00
2022-08-22T08:36:02.617Z,75.80
2022-08-22T08:37:20.316Z,74.30
2022-08-22T08:38:27.832Z,70.30
2022-08-22T08:39:39.184Z,73.50
2022-08-22T08:41:02.547Z,71.00
2022-08-22T08:42:10.786Z,69.50
2022-08-22T08:43:34.926Z,73.50
2022-08-22T08:44:57.673Z,71.00
2022-08-22T08:46:18.634Z,70.00
2022-08-22T08:47:34.185Z,66.90
2022-08-22T08:48:49.715Z,67.10
2022-08-22T08:50:20.603Z,66.20
2022-08-22T08:52:08.209Z,67.50
2022-08-22T08:53:37.900Z,69.10
2022-08-22T08:54:55.559Z,66.00
2022-08-22T08:56:15.623Z,66.80
2022-08-22T08:57:59.041Z,66.40
2022-08-22T08:59:45.795Z,64.70
2022-08-22T09:01:19.548Z,66.30
2022-08-22T09:02:38.532Z,65.90
2022-08-22T09:04:15.370Z,66.40
2022-08-22T09:05:47.233Z,65.80
2022-08-22T09:07:07.933Z,65.50
2022-08-22T09:08:34.488Z,65.20
2022-08-22T09:09:57.677Z,66.70
2022-08-22T09:11:28.289Z,66.70
2022-08-22T09:13:12.186Z,66.30
2022-08-22T09:14:35.892Z,64.90
2022-08-22T09:16:14.701Z,66.30
2022-08-22T09:17:37.232Z,65.00
2022-08-22T09:19:06.449Z,63.20
2022-08-22T09:20:20.538Z,65.00
2022-08-22T09:21:51.630Z,63.20
2022-08-22T09:23:14.491Z,62.20
2022-08-22T09:24:43.575Z,63.00
2022-08-22T09:25:51.100Z,64.50
2022-08-22T09:27:03.675Z,62.00
2022-08-22T09:28:28.402Z,60.60
2022-08-22T09:31:47.404Z,61.50
2022-08-22T09:32:56.470Z,59.90
2022-08-22T09:34:16.834Z,60.20
2022-08-22T09:35:53.692Z,61.30
2022-08-22T09:37:21.586Z,60.20
2022-08-22T09:38:33.408Z,59.70
2022-08-22T09:40:00.825Z,59.30
2022-08-22T09:41:26.366Z,59.50
2022-08-22T09:42:46.421Z,59.40
2022-08-22T09:43:57.478Z,59.80
2022-08-22T09:45:05.397Z,59.30
2022-08-22T09:46:16.470Z,58.00
2022-08-22T09:47:27.123Z,59.20
2022-08-22T09:49:11.184Z,57.50
2022-08-22T09:50:30.837Z,57.60
2022-08-22T09:51:50.230Z,55.80
2022-08-22T09:53:16.773Z,56.90
2022-08-22T09:54:45.607Z,56.60
2022-08-22T09:56:11.557Z,54.00
2022-08-22T09:57:24.011Z,54.90
2022-08-22T09:58:31.774Z,54.80
2022-08-22T10:00:11.386Z,55.10
2022-08-22T10:01:23.557Z,55.30
2022-08-22T10:02:32.265Z,54.60
2022-08-22T10:04:05.880Z,55.00
2022-08-22T10:05:40.592Z,55.10
2022-08-22T10:07:06.416Z,54.60
2022-08-22T10:08:19.540Z,54.70
2022-08-22T10:09:46.296Z,54.30
2022-08-22T10:11:18.887Z,53.20
2022-08-22T10:12:42.711Z,53.70
2022-08-22T10:14:09.937Z,53.40
2022-08-22T10:15:30.437Z,53.00
2022-08-22T10:16:47.321Z,52.40
2022-08-22T10:18:14.426Z,52.10
2022-08-22T10:19:38.126Z,52.70
2022-08-22T10:21:01.484Z,52.40
2022-08-22T10:22:44.595Z,51.50
2022-08-22T10:24:07.181Z,51.20
2022-08-22T10:25:36.621Z,52.10
2022-08-22T10:26:50.963Z,52.60
2022-08-22T10:28:02.997Z,52.70
2022-08-22T10:29:35.809Z,53.70
2022-08-22T10:30:54.869Z,53.50
2022-08-22T10:32:13.930Z,51.30
2022-08-22T10:33:39.919Z,51.90
2022-08-22T10:34:47.351Z,50.70
2022-08-22T10:36:17.732Z,49.40
2022-08-22T10:37:46.617Z,50.10
2022-08-22T10:38:54.944Z,49.60
2022-08-22T10:40:22.072Z,50.00
2022-08-22T10:41:52.762Z,49.80
2022-08-22T10:43:03.304Z,50.40
2022-08-22T10:44:32.885Z,49.30
2022-08-22T10:45:44.628Z,47.50
2022-08-22T10:47:06.841Z,49.10
2022-08-22T10:48:10.152Z,49.40
2022-08-22T10:49:28.672Z,47.30
2022-08-22T10:50:36.504Z,47.00
2022-08-22T10:51:55.253Z,45.80
2022-08-22T10:53:29.553Z,45.40
2022-08-22T10:54:31.446Z,46.60
2022-08-22T10:55:37.500Z,46.00
2022-08-22T10:56:50.823Z,45.00
2022-08-22T10:58:10.765Z,43.40
2022-08-22T10:59:57.203Z,42.60
2022-08-22T11:01:38.253Z,43.20
2022-08-22T11:02:46.835Z,44.10
2022-08-22T11:04:06.721Z,43.00
2022-08-22T11:05:14.721Z,42.70
2022-08-22T11:06:37.570Z,41.90
2022-08-22T11:08:06.502Z,42.00
2022-08-22T11:09:23.662Z,43.80
2022-08-22T11:10:55.751Z,43.80
2022-08-22T11:12:19.984Z,44.60
2022-08-22T11:13:21.668Z,45.50
2022-08-22T11:14:38.692Z,45.20
2022-08-22T11:15:58.790Z,43.70
2022-08-22T11:17:30.829Z,42.90
2022-08-22T11:19:03.171Z,42.60
2022-08-22T11:20:28.063Z,42.20
2022-08-22T11:21:42.999Z,41.80
2022-08-22T11:23:12.383Z,40.60
2022-08-22T11:24:54.063Z,42.60
2022-08-22T11:26:29.328Z,43.20
2022-08-22T11:27:41.166Z,39.20
2022-08-22T11:29:14.104Z,40.50
2022-08-22T11:30:31.461Z,41.00
2022-08-22T11:31:56.404Z,42.70
2022-08-22T11:33:46.188Z,40.90
2022-08-22T11:35:09.225Z,40.10
2022-08-22T11:36:31.103Z,39.90
2022-08-22T11:37:56.891Z,40.90
2022-08-22T11:39:17.944Z,38.90
2022-08-22T11:40:57.712Z,37.50
2022-08-22T11:42:26.608Z,37.50
2022-08-22T11:43:44.550Z,37.20
2022-08-22T11:44:54.020Z,37.80
2022-08-22T11:46:00.528Z,36.60
2022-08-22T11:47:07.307Z,38.00
2022-08-22T11:48:26.744Z,37.40
2022-08-22T11:49:38.472Z,37.90
2022-08-22T11:51:13.257Z,36.30
2022-08-22T11:52:42.533Z,37.40
2022-08-22T11:53:51.984Z,37.10
2022-08-22T11:55:12.610Z,37.10
2022-08-22T11:56:31.289Z,36.20
2022-08-22T11:57:41.723Z,37.60
2022-08-22T11:59:13.033Z,39.60
2022-08-22T12:00:26.711Z,36.20
2022-08-22T12:01:37.133Z,36.00
2022-08-22T12:03:06.863Z,36.00
2022-08-22T12:04:20.061Z,35.60
2022-08-22T12:05:29.189Z,37.20
2022-08-22T12:06:30.866Z,37.60
2022-08-22T12:07:40.683Z,40.70
2022-08-22T12:08:51.201Z,37.80
2022-08-22T12:09:59.339Z,39.30
2022-08-22T12:11:22.690Z,40.00
2022-08-22T12:12:48.437Z,37.30
2022-08-22T12:14:04.174Z,38.00
2022-08-22T12:15:24.491Z,36.90
2022-08-22T12:16:32.873Z,36.80
2022-08-22T12:17:55.765Z,35.40
2022-08-22T12:19:10.758Z,35.40
2022-08-22T12:20:33.710Z,36.60
2022-08-22T12:22:00.570Z,38.20
2022-08-22T12:23:38.019Z,36.20
2022-08-22T12:25:12.862Z,35.60
2022-08-22T12:26:22.077Z,37.30
2022-08-22T12:27:50.742Z,37.10
2022-08-22T12:29:03.548Z,37.40
2022-08-22T12:30:54.982Z,37.10
2022-08-22T12:32:15.028Z,36.80
2022-08-22T12:33:33.155Z,37.20
2022-08-22T12:34:41.631Z,39.40
2022-08-22T12:36:17.980Z,38.70
2022-08-22T12:37:44.942Z,37.00
2022-08-22T12:39:15.767Z,37.30
2022-08-22T12:40:51.741Z,36.00
2022-08-22T12:42:14.330Z,37.10
2022-08-22T12:43:27.954Z,38.10
2022-08-22T12:44:42.791Z,36.90
2022-08-22T12:46:03.922Z,36.10
2022-08-22T12:47:22.777Z,35.90
2022-08-22T12:48:33.560Z,35.90
2022-08-22T12:49:54.213Z,36.10
2022-08-22T12:51:17.476Z,38.00
2022-08-22T12:52:34.767Z,37.30
2022-08-22T12:53:51.050Z,37.40
2022-08-22T12:55:24.975Z,36.70
2022-08-22T12:57:04.934Z,36.40
2022-08-22T12:58:35.589Z,35.90
2022-08-22T12:59:41.814Z,35.30
2022-08-22T13:00:47.274Z,35.20
2022-08-22T13:02:00.652Z,34.90
2022-08-22T13:03:10.047Z,36.70
2022-08-22T13:04:32.511Z,35.10
2022-08-22T13:05:40.479Z,35.50
2022-08-22T13:06:49.888Z,36.90
2022-08-22T13:08:04.150Z,35.40
2022-08-22T13:09:28.698Z,35.50
2022-08-22T13:11:01.165Z,36.40
2022-08-22T13:12:20.856Z,36.10
2022-08-22T13:13:37.210Z,34.70
2022-08-22T13:14:44.219Z,34.60
2022-08-22T13:15:54.092Z,35.40
2022-08-22T13:16:59.771Z,34.40
2022-08-22T13:18:28.728Z,35.10
2022-08-22T13:19:33.086Z,35.20
2022-08-22T13:20:39.762Z,34.80
2022-08-22T13:21:49.521Z,35.60
2022-08-22T13:22:54.529Z,34.80
2022-08-22T13:24:03.946Z,34.80
2022-08-22T13:25:26.032Z,34.60
2022-08-22T13:26:34.491Z,34.30
2022-08-22T13:28:03.402Z,34.40
2022-08-22T13:30:40.742Z,34.10
2022-08-22T13:31:44.236Z,34.20
2022-08-22T13:32:49.915Z,34.60
2022-08-22T13:34:05.654Z,34.00
2022-08-22T13:35:24.445Z,34.20
2022-08-22T13:36:28.476Z,33.80
2022-08-22T13:37:53.790Z,32.70
2022-08-22T13:38:58.674Z,33.30
2022-08-22T13:40:08.802Z,33.40
2022-08-22T13:41:11.574Z,33.80
2022-08-22T13:42:31.184Z,35.50
2022-08-22T13:44:13.418Z,35.40
2022-08-22T13:45:26.821Z,35.60
2022-08-22T13:46:30.364Z,34.40
2022-08-22T13:47:53.844Z,35.70
2022-08-22T13:49:01.131Z,35.20
2022-08-22T13:50:12.579Z,35.60
2022-08-22T13:51:28.630Z,35.10
2022-08-22T13:52:57.174Z,34.40
2022-08-22T13:54:12.471Z,34.10
2022-08-22T13:55:21.280Z,35.30
2022-08-22T13:56:30.050Z,34.60
2022-08-22T13:57:37.869Z,34.20
2022-08-22T13:59:00.420Z,34.20
2022-08-22T14:00:11.172Z,34.80
2022-08-22T14:01:25.299Z,34.80
2022-08-22T14:02:47.854Z,34.50
2022-08-22T14:04:17.560Z,34.40
2022-08-22T14:05:44.357Z,35.50
2022-08-22T14:06:59.799Z,35.50
2022-08-22T14:08:34.015Z,36.00
2022-08-22T14:09:47.348Z,37.30
2022-08-22T14:11:03.468Z,38.40
2022-08-22T14:12:13.770Z,37.40
2022-08-22T14:13:35.203Z,40.70
2022-08-22T14:14:46.199Z,37.60
2022-08-22T14:15:48.299Z,37.50
2022-08-22T14:16:55.221Z,37.70
2022-08-22T14:18:10.351Z,38.60
2022-08-22T14:19:22.858Z,38.60
2022-08-22T14:20:33.531Z,39.90
2022-08-22T14:21:44.951Z,40.40
2022-08-22T14:22:58.921Z,39.60
2022-08-22T14:24:12.778Z,39.80
2022-08-22T14:25:21.502Z,39.90
2022-08-22T14:26:33.031Z,40.10
2022-08-22T14:27:52.511Z,40.70
2022-08-22T14:28:59.260Z,40.50
2022-08-22T14:30:12.233Z,40.40
2022-08-22T14:31:14.487Z,39.70
2022-08-22T14:32:19.247Z,40.50
2022-08-22T14:33:31.197Z,40.40
2022-08-22T14:34:37.520Z,40.20
2022-08-22T14:35:52.714Z,41.10
2022-08-22T14:37:00.177Z,42.50
2022-08-22T14:38:35.227Z,40.30
2022-08-22T14:39:44.509Z,39.40
2022-08-22T14:40:52.690Z,39.70
2022-08-22T14:42:12.060Z,40.60
2022-08-22T14:43:34.049Z,40.40
2022-08-22T14:45:06.772Z,39.90
2022-08-22T14:46:14.382Z,40.40
2022-08-22T14:47:54.438Z,39.10
2022-08-22T14:49:11.430Z,39.40
2022-08-22T14:50:53.148Z,39.40
2022-08-22T14:52:03.154Z,39.30
2022-08-22T14:53:09.465Z,41.60
2022-08-22T14:54:22.026Z,39.60
2022-08-22T14:55:30.511Z,41.20
2022-08-22T14:56:32.737Z,40.90
2022-08-22T14:57:41.110Z,40.80
2022-08-22T14:58:59.439Z,41.10
2022-08-22T15:00:08.706Z,41.20
2022-08-22T15:01:15.290Z,39.80
2022-08-22T15:02:27.732Z,41.30
2022-08-22T15:03:37.350Z,41.00
2022-08-22T15:04:48.243Z,39.30
2022-08-22T15:05:52.787Z,39.10
2022-08-22T15:06:58.524Z,39.20
2022-08-22T15:08:00.559Z,38.60
2022-08-22T15:09:08.099Z,40.70
2022-08-22T15:10:31.657Z,38.50
2022-08-22T15:11:36.329Z,39.00
2022-08-22T15:12:45.633Z,39.70
2022-08-22T15:14:08.215Z,40.10
2022-08-22T15:15:49.850Z,38.50
2022-08-22T15:17:06.239Z,38.70
2022-08-22T15:18:33.612Z,37.50
2022-08-22T15:19:44.505Z,39.40
2022-08-22T15:20:49.249Z,39.20
2022-08-22T15:22:19.072Z,38.60
2022-08-22T15:23:23.308Z,39.20
2022-08-22T15:24:25.158Z,38.40
2022-08-22T15:25:41.010Z,40.40
2022-08-22T15:26:55.298Z,40.30
2022-08-22T15:28:05.292Z,38.60
2022-08-22T15:29:17.306Z,39.60
2022-08-22T15:30:44.810Z,40.10
2022-08-22T15:31:50.240Z,39.00
2022-08-22T15:32:51.931Z,38.60
2022-08-22T15:34:10.657Z,38.60
2022-08-22T15:35:27.482Z,39.00
2022-08-22T15:36:31.846Z,39.70
2022-08-22T15:37:51.974Z,40.10
2022-08-22T15:39:13.804Z,38.30
2022-08-22T15:40:34.568Z,39.60
2022-08-22T15:41:37.053Z,39.20
2022-08-22T15:42:51.015Z,39.70
2022-08-22T15:44:09.454Z,38.80
2022-08-22T15:45:32.637Z,39.30
2022-08-22T15:46:58.841Z,39.40
2022-08-22T15:48:04.520Z,39.00
2022-08-22T15:49:28.754Z,39.30
2022-08-22T15:50:56.233Z,39.50
2022-08-22T15:52:00.937Z,39.10
2022-08-22T15:53:23.973Z,39.60
2022-08-22T15:54:51.309Z,41.60
2022-08-22T15:58:21.757Z,39.70
2022-08-22T15:59:44.776Z,39.80
2022-08-22T16:01:19.685Z,40.00
2022-08-22T16:02:51.448Z,40.20
2022-08-22T16:04:02.111Z,40.50
2022-08-22T16:05:10.311Z,39.90
2022-08-22T16:06:12.174Z,41.20
2022-08-22T16:07:49.157Z,42.40
2022-08-22T16:08:54.163Z,41.40
2022-08-22T16:09:58.071Z,39.90
2022-08-22T16:11:02.850Z,40.60
2022-08-22T16:12:09.785Z,40.60
2022-08-22T16:13:39.485Z,41.20
2022-08-22T16:14:41.159Z,41.60
2022-08-22T16:15:54.062Z,42.20
2022-08-22T16:17:03.596Z,43.30
2022-08-22T16:18:05.557Z,41.90
2022-08-22T16:19:16.926Z,42.10
2022-08-22T16:20:19.988Z,42.10
2022-08-22T16:21:22.138Z,43.70
2022-08-22T16:22:58.925Z,45.40
2022-08-22T16:24:00.997Z,44.50
2022-08-22T16:25:06.068Z,44.90
2022-08-22T16:26:10.135Z,43.10
2022-08-22T16:27:20.640Z,42.80
2022-08-22T16:28:56.986Z,42.00
2022-08-22T16:30:02.978Z,42.40
2022-08-22T16:31:20.731Z,42.40
2022-08-22T16:32:27.624Z,44.00
2022-08-22T16:33:33.849Z,46.10
2022-08-22T16:34:38.259Z,47.40
2022-08-22T16:36:14.770Z,46.80
2022-08-22T16:37:25.530Z,48.00
2022-08-22T16:38:36.764Z,48.70
2022-08-22T16:39:46.835Z,48.00
2022-08-22T16:40:48.578Z,46.80
2022-08-22T16:41:53.310Z,46.10
2022-08-22T16:43:16.999Z,48.50
2022-08-22T16:44:30.724Z,48.60
2022-08-22T16:45:35.157Z,49.90
2022-08-22T16:46:41.646Z,50.30